sensor_id;sensor_type;location;lat;lon;timestamp;pressure;altitude;pressure_sealevel;temperature;humidity
28588;BME280;15787;49.662;10.162;2023-04-03T00:02:16;100076.16;;;2.08;81.88
28588;BME280;15787;49.662;10.162;2023-04-03T00:04:51;100073.69;;;2.19;81.93
28588;BME280;15787;49.662;10.162;2023-04-03T00:07:24;100074.66;;;1.99;81.73
28588;BME280;15787;49.662;10.162;2023-04-03T00:09:57;100086.38;;;2.08;82.49
28588;BME280;15787;49.662;10.162;2023-04-03T00:12:30;100076.41;;;2.03;82.16
28588;BME280;15787;49.662;10.162;2023-04-03T00:15:03;100080.78;;;1.92;82.49
28588;BME280;15787;49.662;10.162;2023-04-03T00:17:36;100076.91;;;1.81;82.84
28588;BME280;15787;49.662;10.162;2023-04-03T00:20:11;100075.06;;;1.85;83.28
28588;BME280;15787;49.662;10.162;2023-04-03T00:22:44;100074.53;;;2.07;82.85
28588;BME280;15787;49.662;10.162;2023-04-03T00:25:18;100076.00;;;2.17;82.80
28588;BME280;15787;49.662;10.162;2023-04-03T00:27:51;100072.41;;;1.88;82.63
28588;BME280;15787;49.662;10.162;2023-04-03T00:30:24;100083.75;;;1.99;82.92
28588;BME280;15787;49.662;10.162;2023-04-03T00:32:57;100070.59;;;1.92;83.08
28588;BME280;15787;49.662;10.162;2023-04-03T00:35:34;100071.88;;;1.71;83.19
28588;BME280;15787;49.662;10.162;2023-04-03T00:38:08;100072.56;;;1.80;83.94
28588;BME280;15787;49.662;10.162;2023-04-03T00:40:43;100073.13;;;1.73;84.07
28588;BME280;15787;49.662;10.162;2023-04-03T00:43:22;100068.47;;;1.62;84.06
28588;BME280;15787;49.662;10.162;2023-04-03T00:45:56;100077.78;;;1.57;84.47
28588;BME280;15787;49.662;10.162;2023-04-03T00:48:31;100078.56;;;1.58;84.92
28588;BME280;15787;49.662;10.162;2023-04-03T00:51:10;100066.63;;;1.66;84.88
28588;BME280;15787;49.662;10.162;2023-04-03T00:53:47;100066.59;;;1.78;84.57
28588;BME280;15787;49.662;10.162;2023-04-03T00:56:25;100066.69;;;1.81;84.53
28588;BME280;15787;49.662;10.162;2023-04-03T00:59:02;100065.75;;;1.89;84.65
28588;BME280;15787;49.662;10.162;2023-04-03T01:01:37;100067.66;;;1.61;84.67
28588;BME280;15787;49.662;10.162;2023-04-03T01:04:26;100067.72;;;1.89;84.73
28588;BME280;15787;49.662;10.162;2023-04-03T01:07:02;100070.06;;;1.75;84.78
28588;BME280;15787;49.662;10.162;2023-04-03T01:09:38;100070.81;;;1.87;84.83
28588;BME280;15787;49.662;10.162;2023-04-03T01:12:13;100065.16;;;1.96;84.99
28588;BME280;15787;49.662;10.162;2023-04-03T01:14:50;100068.38;;;1.98;84.57
28588;BME280;15787;49.662;10.162;2023-04-03T01:17:29;100061.75;;;1.87;84.29
28588;BME280;15787;49.662;10.162;2023-04-03T01:23:22;100073.09;;;1.98;84.79
28588;BME280;15787;49.662;10.162;2023-04-03T01:25:57;100070.16;;;2.18;84.58
28588;BME280;15787;49.662;10.162;2023-04-03T01:28:32;100071.47;;;2.24;84.34
28588;BME280;15787;49.662;10.162;2023-04-03T01:31:12;100078.09;;;2.35;84.88
28588;BME280;15787;49.662;10.162;2023-04-03T01:33:50;100071.19;;;2.41;85.43
28588;BME280;15787;49.662;10.162;2023-04-03T01:36:25;100076.78;;;2.45;85.62
28588;BME280;15787;49.662;10.162;2023-04-03T01:39:00;100076.56;;;2.22;85.90
28588;BME280;15787;49.662;10.162;2023-04-03T01:41:33;100079.16;;;2.03;86.49
28588;BME280;15787;49.662;10.162;2023-04-03T01:44:15;100077.41;;;2.11;86.10
28588;BME280;15787;49.662;10.162;2023-04-03T01:46:49;100084.41;;;2.08;85.89
28588;BME280;15787;49.662;10.162;2023-04-03T01:49:25;100075.59;;;2.03;85.92
28588;BME280;15787;49.662;10.162;2023-04-03T01:51:59;100069.41;;;2.33;86.24
28588;BME280;15787;49.662;10.162;2023-04-03T01:54:32;100083.72;;;2.39;85.09
28588;BME280;15787;49.662;10.162;2023-04-03T01:57:06;100076.59;;;2.38;85.09
28588;BME280;15787;49.662;10.162;2023-04-03T01:59:40;100079.47;;;2.41;85.66
28588;BME280;15787;49.662;10.162;2023-04-03T02:02:13;100081.84;;;2.43;85.85
28588;BME280;15787;49.662;10.162;2023-04-03T02:04:47;100073.47;;;2.39;85.81
28588;BME280;15787;49.662;10.162;2023-04-03T02:07:20;100079.84;;;2.55;86.10
28588;BME280;15787;49.662;10.162;2023-04-03T02:09:53;100080.47;;;2.65;86.02
28588;BME280;15787;49.662;10.162;2023-04-03T02:12:27;100087.69;;;2.85;85.54
28588;BME280;15787;49.662;10.162;2023-04-03T02:15:00;100078.63;;;2.69;85.65
28588;BME280;15787;49.662;10.162;2023-04-03T02:17:33;100086.63;;;2.74;85.59
28588;BME280;15787;49.662;10.162;2023-04-03T02:20:09;100081.84;;;2.86;85.58
28588;BME280;15787;49.662;10.162;2023-04-03T02:22:42;100080.41;;;2.77;85.17
28588;BME280;15787;49.662;10.162;2023-04-03T02:25:16;100083.25;;;2.80;85.54
28588;BME280;15787;49.662;10.162;2023-04-03T02:27:50;100076.94;;;2.80;85.79
28588;BME280;15787;49.662;10.162;2023-04-03T02:30:23;100078.81;;;2.76;86.20
28588;BME280;15787;49.662;10.162;2023-04-03T02:32:57;100078.81;;;2.76;86.64
28588;BME280;15787;49.662;10.162;2023-04-03T02:35:32;100080.47;;;2.65;86.75
28588;BME280;15787;49.662;10.162;2023-04-03T02:38:05;100081.56;;;2.76;86.96
28588;BME280;15787;49.662;10.162;2023-04-03T02:40:38;100073.72;;;2.78;87.30
28588;BME280;15787;49.662;10.162;2023-04-03T02:43:11;100074.69;;;2.70;87.80
28588;BME280;15787;49.662;10.162;2023-04-03T02:45:44;100075.16;;;2.72;88.17
28588;BME280;15787;49.662;10.162;2023-04-03T02:48:17;100080.31;;;2.30;88.33
28588;BME280;15787;49.662;10.162;2023-04-03T02:50:52;100087.88;;;2.33;88.46
28588;BME280;15787;49.662;10.162;2023-04-03T02:53:24;100087.47;;;2.90;88.38
28588;BME280;15787;49.662;10.162;2023-04-03T02:55:57;100087.09;;;2.76;88.04
28588;BME280;15787;49.662;10.162;2023-04-03T02:58:30;100100.09;;;2.91;88.20
28588;BME280;15787;49.662;10.162;2023-04-03T03:01:04;100092.19;;;3.05;88.29
28588;BME280;15787;49.662;10.162;2023-04-03T03:03:37;100087.97;;;2.95;87.87
28588;BME280;15787;49.662;10.162;2023-04-03T03:06:13;100082.75;;;3.06;87.63
28588;BME280;15787;49.662;10.162;2023-04-03T03:08:46;100094.59;;;3.06;88.01
28588;BME280;15787;49.662;10.162;2023-04-03T03:11:19;100095.72;;;3.21;87.97
28588;BME280;15787;49.662;10.162;2023-04-03T03:13:52;100085.56;;;2.78;88.32
28588;BME280;15787;49.662;10.162;2023-04-03T03:16:25;100088.88;;;2.99;88.59
28588;BME280;15787;49.662;10.162;2023-04-03T03:18:58;100081.09;;;2.58;88.04
28588;BME280;15787;49.662;10.162;2023-04-03T03:21:33;100072.31;;;2.68;88.55
28588;BME280;15787;49.662;10.162;2023-04-03T03:24:06;100069.66;;;3.03;89.21
28588;BME280;15787;49.662;10.162;2023-04-03T03:26:39;100066.63;;;2.77;88.95
28588;BME280;15787;49.662;10.162;2023-04-03T03:29:12;100073.72;;;2.78;88.40
28588;BME280;15787;49.662;10.162;2023-04-03T03:31:46;100073.66;;;2.74;87.96
28588;BME280;15787;49.662;10.162;2023-04-03T03:34:19;100077.09;;;2.55;87.78
28588;BME280;15787;49.662;10.162;2023-04-03T03:36:53;100069.06;;;2.50;87.94
28588;BME280;15787;49.662;10.162;2023-04-03T03:39:26;100073.81;;;2.66;88.11
28588;BME280;15787;49.662;10.162;2023-04-03T03:41:59;100075.16;;;3.03;87.31
28588;BME280;15787;49.662;10.162;2023-04-03T03:44:32;100076.50;;;2.93;86.37
28588;BME280;15787;49.662;10.162;2023-04-03T03:47:05;100076.50;;;3.09;86.11
28588;BME280;15787;49.662;10.162;2023-04-03T03:49:41;100079.91;;;3.02;85.71
28588;BME280;15787;49.662;10.162;2023-04-03T03:52:16;100074.47;;;3.06;85.74
28588;BME280;15787;49.662;10.162;2023-04-03T03:54:49;100075.91;;;3.00;85.44
28588;BME280;15787;49.662;10.162;2023-04-03T03:57:22;100064.22;;;3.38;86.54
28588;BME280;15787;49.662;10.162;2023-04-03T03:59:55;100072.50;;;3.22;86.97
28588;BME280;15787;49.662;10.162;2023-04-03T04:02:29;100069.53;;;3.31;87.52
28588;BME280;15787;49.662;10.162;2023-04-03T04:05:02;100073.38;;;3.10;86.51
28588;BME280;15787;49.662;10.162;2023-04-03T04:07:37;100073.03;;;2.96;85.50
28588;BME280;15787;49.662;10.162;2023-04-03T04:10:10;100069.75;;;2.91;85.11
28588;BME280;15787;49.662;10.162;2023-04-03T04:12:46;100071.69;;;2.75;86.32
28588;BME280;15787;49.662;10.162;2023-04-03T04:15:21;100076.22;;;2.83;87.70
28588;BME280;15787;49.662;10.162;2023-04-03T04:17:55;100078.28;;;2.86;88.73
28588;BME280;15787;49.662;10.162;2023-04-03T04:20:29;100073.13;;;2.84;88.89
28588;BME280;15787;49.662;10.162;2023-04-03T04:23:03;100068.94;;;3.06;87.87
28588;BME280;15787;49.662;10.162;2023-04-03T04:25:36;100074.25;;;2.68;88.65
28588;BME280;15787;49.662;10.162;2023-04-03T04:28:10;100066.00;;;2.83;88.61
28588;BME280;15787;49.662;10.162;2023-04-03T04:30:43;100066.41;;;2.70;89.00
28588;BME280;15787;49.662;10.162;2023-04-03T04:33:17;100070.94;;;2.62;89.94
28588;BME280;15787;49.662;10.162;2023-04-03T04:35:51;100070.94;;;2.62;90.36
28588;BME280;15787;49.662;10.162;2023-04-03T04:38:27;100074.19;;;2.64;90.75
28588;BME280;15787;49.662;10.162;2023-04-03T04:41:01;100070.34;;;2.69;91.04
28588;BME280;15787;49.662;10.162;2023-04-03T04:43:34;100077.63;;;2.61;90.74
28588;BME280;15787;49.662;10.162;2023-04-03T04:46:09;100074.69;;;2.54;90.85
28588;BME280;15787;49.662;10.162;2023-04-03T04:48:48;100072.81;;;2.58;91.27
28588;BME280;15787;49.662;10.162;2023-04-03T04:51:24;100071.97;;;2.42;91.51
28588;BME280;15787;49.662;10.162;2023-04-03T04:54:02;100082.22;;;2.57;91.41
28588;BME280;15787;49.662;10.162;2023-04-03T04:56:36;100081.16;;;2.46;91.62
28588;BME280;15787;49.662;10.162;2023-04-03T04:59:11;100088.38;;;2.50;92.14
28588;BME280;15787;49.662;10.162;2023-04-03T05:01:44;100088.44;;;2.38;92.26
28588;BME280;15787;49.662;10.162;2023-04-03T05:04:20;100094.94;;;2.46;92.02
28588;BME280;15787;49.662;10.162;2023-04-03T05:06:58;100091.63;;;2.40;91.94
28588;BME280;15787;49.662;10.162;2023-04-03T05:09:34;100092.19;;;2.46;91.88
28588;BME280;15787;49.662;10.162;2023-04-03T05:12:07;100093.50;;;2.36;91.29
28588;BME280;15787;49.662;10.162;2023-04-03T05:14:46;100091.78;;;2.32;91.57
28588;BME280;15787;49.662;10.162;2023-04-03T05:17:19;100104.34;;;2.45;91.41
28588;BME280;15787;49.662;10.162;2023-04-03T05:19:56;100103.50;;;2.29;91.48
28588;BME280;15787;49.662;10.162;2023-04-03T05:22:31;100102.72;;;2.28;91.36
28588;BME280;15787;49.662;10.162;2023-04-03T05:25:10;100103.84;;;2.27;91.99
28588;BME280;15787;49.662;10.162;2023-04-03T05:27:47;100102.09;;;2.35;91.64
28588;BME280;15787;49.662;10.162;2023-04-03T05:30:21;100112.44;;;2.38;91.39
28588;BME280;15787;49.662;10.162;2023-04-03T05:32:54;100112.06;;;2.39;91.15
28588;BME280;15787;49.662;10.162;2023-04-03T05:35:37;100117.00;;;2.46;91.13
28588;BME280;15787;49.662;10.162;2023-04-03T05:38:16;100114.53;;;2.29;91.10
28588;BME280;15787;49.662;10.162;2023-04-03T05:40:51;100109.94;;;2.33;91.61
28588;BME280;15787;49.662;10.162;2023-04-03T05:43:24;100108.66;;;2.30;92.27
28588;BME280;15787;49.662;10.162;2023-04-03T05:45:58;100110.97;;;2.28;92.93
28588;BME280;15787;49.662;10.162;2023-04-03T05:48:32;100111.22;;;2.23;92.92
28588;BME280;15787;49.662;10.162;2023-04-03T05:51:07;100116.38;;;2.25;93.39
28588;BME280;15787;49.662;10.162;2023-04-03T05:53:41;100121.78;;;2.21;93.78
28588;BME280;15787;49.662;10.162;2023-04-03T05:56:17;100126.50;;;2.21;94.74
28588;BME280;15787;49.662;10.162;2023-04-03T05:58:50;100123.31;;;2.46;94.40
28588;BME280;15787;49.662;10.162;2023-04-03T06:01:22;100125.22;;;2.30;94.51
28588;BME280;15787;49.662;10.162;2023-04-03T06:03:56;100132.59;;;2.54;93.97
28588;BME280;15787;49.662;10.162;2023-04-03T06:06:43;100135.03;;;2.43;93.48
28588;BME280;15787;49.662;10.162;2023-04-03T06:09:17;100137.03;;;2.59;93.18
28588;BME280;15787;49.662;10.162;2023-04-03T06:11:52;100143.84;;;2.77;92.60
28588;BME280;15787;49.662;10.162;2023-04-03T06:14:27;100138.63;;;2.60;92.21
28588;BME280;15787;49.662;10.162;2023-04-03T06:17:00;100141.72;;;2.86;91.78
28588;BME280;15787;49.662;10.162;2023-04-03T06:19:33;100149.66;;;2.87;90.93
28588;BME280;15787;49.662;10.162;2023-04-03T06:22:06;100147.13;;;2.82;91.42
28588;BME280;15787;49.662;10.162;2023-04-03T06:24:39;100148.06;;;2.86;90.72
28588;BME280;15787;49.662;10.162;2023-04-03T06:27:14;100146.66;;;2.92;90.47
28588;BME280;15787;49.662;10.162;2023-04-03T06:29:48;100157.28;;;2.78;90.06
28588;BME280;15787;49.662;10.162;2023-04-03T06:32:21;100157.69;;;3.08;89.10
28588;BME280;15787;49.662;10.162;2023-04-03T06:34:55;100158.72;;;2.88;89.15
28588;BME280;15787;49.662;10.162;2023-04-03T06:37:28;100161.00;;;3.13;88.47
28588;BME280;15787;49.662;10.162;2023-04-03T06:40:02;100161.94;;;3.05;88.08
28588;BME280;15787;49.662;10.162;2023-04-03T06:42:37;100155.19;;;3.18;88.47
28588;BME280;15787;49.662;10.162;2023-04-03T06:45:14;100158.78;;;3.35;87.50
28588;BME280;15787;49.662;10.162;2023-04-03T06:47:48;100163.66;;;3.41;86.82
28588;BME280;15787;49.662;10.162;2023-04-03T06:50:20;100160.03;;;3.53;86.25
28588;BME280;15787;49.662;10.162;2023-04-03T06:52:53;100164.31;;;3.50;85.97
28588;BME280;15787;49.662;10.162;2023-04-03T06:55:26;100175.41;;;3.69;84.69
28588;BME280;15787;49.662;10.162;2023-04-03T06:58:00;100165.63;;;3.56;84.93
28588;BME280;15787;49.662;10.162;2023-04-03T07:00:33;100172.31;;;3.55;84.86
28588;BME280;15787;49.662;10.162;2023-04-03T07:03:06;100181.38;;;3.87;84.22
28588;BME280;15787;49.662;10.162;2023-04-03T07:05:39;100187.41;;;3.93;83.92
28588;BME280;15787;49.662;10.162;2023-04-03T07:08:14;100195.44;;;3.98;83.54
28588;BME280;15787;49.662;10.162;2023-04-03T07:10:47;100187.56;;;4.15;82.87
28588;BME280;15787;49.662;10.162;2023-04-03T07:13:22;100186.88;;;4.57;83.40
28588;BME280;15787;49.662;10.162;2023-04-03T07:15:56;100192.34;;;4.72;81.43
28588;BME280;15787;49.662;10.162;2023-04-03T07:18:29;100201.88;;;4.75;80.96
28588;BME280;15787;49.662;10.162;2023-04-03T07:21:03;100204.72;;;4.59;79.93
28588;BME280;15787;49.662;10.162;2023-04-03T07:23:36;100200.81;;;4.60;79.18
28588;BME280;15787;49.662;10.162;2023-04-03T07:26:09;100201.34;;;4.50;79.84
28588;BME280;15787;49.662;10.162;2023-04-03T07:28:44;100210.84;;;4.87;79.75
28588;BME280;15787;49.662;10.162;2023-04-03T07:31:20;100214.41;;;4.69;79.15
28588;BME280;15787;49.662;10.162;2023-04-03T07:33:53;100214.34;;;4.65;78.95
28588;BME280;15787;49.662;10.162;2023-04-03T07:36:26;100220.78;;;4.34;78.20
28588;BME280;15787;49.662;10.162;2023-04-03T07:38:59;100215.22;;;4.69;78.87
28588;BME280;15787;49.662;10.162;2023-04-03T07:41:32;100215.28;;;4.92;78.39
28588;BME280;15787;49.662;10.162;2023-04-03T07:44:06;100214.16;;;5.16;78.14
28588;BME280;15787;49.662;10.162;2023-04-03T07:46:41;100217.00;;;5.42;77.86
28588;BME280;15787;49.662;10.162;2023-04-03T07:49:14;100213.25;;;5.76;76.62
28588;BME280;15787;49.662;10.162;2023-04-03T07:51:48;100221.28;;;6.04;75.64
28588;BME280;15787;49.662;10.162;2023-04-03T07:54:21;100222.66;;;6.17;75.91
28588;BME280;15787;49.662;10.162;2023-04-03T07:56:54;100221.38;;;6.37;74.51
28588;BME280;15787;49.662;10.162;2023-04-03T07:59:29;100219.66;;;6.55;73.90
28588;BME280;15787;49.662;10.162;2023-04-03T08:02:02;100237.75;;;6.19;72.69
28588;BME280;15787;49.662;10.162;2023-04-03T08:04:36;100238.78;;;5.85;72.47
28588;BME280;15787;49.662;10.162;2023-04-03T08:07:09;100227.44;;;6.46;72.26
28588;BME280;15787;49.662;10.162;2023-04-03T08:09:42;100219.03;;;6.69;71.68
28588;BME280;15787;49.662;10.162;2023-04-03T08:12:16;100220.59;;;6.99;72.82
28588;BME280;15787;49.662;10.162;2023-04-03T08:14:50;100226.81;;;6.89;70.75
28588;BME280;15787;49.662;10.162;2023-04-03T08:17:23;100224.53;;;6.95;71.44
28588;BME280;15787;49.662;10.162;2023-04-03T08:19:56;100227.91;;;7.11;70.13
28588;BME280;15787;49.662;10.162;2023-04-03T08:22:29;100227.47;;;7.46;70.58
28588;BME280;15787;49.662;10.162;2023-04-03T08:25:02;100226.47;;;7.28;68.78
28588;BME280;15787;49.662;10.162;2023-04-03T08:27:35;100234.94;;;6.72;67.60
28588;BME280;15787;49.662;10.162;2023-04-03T08:30:11;100236.97;;;6.75;68.52
28588;BME280;15787;49.662;10.162;2023-04-03T08:32:45;100239.06;;;6.55;68.05
28588;BME280;15787;49.662;10.162;2023-04-03T08:35:18;100239.75;;;6.49;67.53
28588;BME280;15787;49.662;10.162;2023-04-03T08:37:51;100245.94;;;6.94;68.57
28588;BME280;15787;49.662;10.162;2023-04-03T08:40:25;100236.91;;;7.01;68.82
28588;BME280;15787;49.662;10.162;2023-04-03T08:43:09;100236.03;;;6.97;67.98
28588;BME280;15787;49.662;10.162;2023-04-03T08:45:55;100237.16;;;6.89;68.45
28588;BME280;15787;49.662;10.162;2023-04-03T08:48:33;100244.22;;;6.53;67.80
28588;BME280;15787;49.662;10.162;2023-04-03T08:51:12;100248.25;;;6.89;67.42
28588;BME280;15787;49.662;10.162;2023-04-03T08:53:59;100245.28;;;7.41;67.46
28588;BME280;15787;49.662;10.162;2023-04-03T08:56:35;100241.22;;;7.72;65.93
28588;BME280;15787;49.662;10.162;2023-04-03T08:59:12;100238.97;;;7.88;64.21
28588;BME280;15787;49.662;10.162;2023-04-03T09:01:47;100232.78;;;8.09;62.45
28588;BME280;15787;49.662;10.162;2023-04-03T09:04:20;100240.00;;;8.17;63.70
28588;BME280;15787;49.662;10.162;2023-04-03T09:06:57;100230.94;;;8.23;62.88
28588;BME280;15787;49.662;10.162;2023-04-03T09:09:35;100242.25;;;8.52;62.75
28588;BME280;15787;49.662;10.162;2023-04-03T09:12:17;100245.09;;;8.59;61.29
28588;BME280;15787;49.662;10.162;2023-04-03T09:14:57;100243.91;;;8.56;61.47
28588;BME280;15787;49.662;10.162;2023-04-03T09:17:41;100245.56;;;8.68;61.58
28588;BME280;15787;49.662;10.162;2023-04-03T09:20:24;100253.34;;;7.94;60.49
28588;BME280;15787;49.662;10.162;2023-04-03T09:22:58;100253.63;;;7.82;61.93
28588;BME280;15787;49.662;10.162;2023-04-03T09:25:33;100246.97;;;7.49;61.30
28588;BME280;15787;49.662;10.162;2023-04-03T09:28:10;100255.06;;;6.95;62.14
28588;BME280;15787;49.662;10.162;2023-04-03T09:30:43;100256.75;;;7.36;63.61
28588;BME280;15787;49.662;10.162;2023-04-03T09:33:18;100256.28;;;6.97;62.76
28588;BME280;15787;49.662;10.162;2023-04-03T09:35:52;100253.31;;;7.13;63.04
28588;BME280;15787;49.662;10.162;2023-04-03T09:38:26;100262.41;;;6.80;62.00
28588;BME280;15787;49.662;10.162;2023-04-03T09:41:05;100256.25;;;6.94;62.58
28588;BME280;15787;49.662;10.162;2023-04-03T09:43:39;100266.44;;;6.57;61.93
28588;BME280;15787;49.662;10.162;2023-04-03T09:46:18;100262.41;;;6.24;62.02
28588;BME280;15787;49.662;10.162;2023-04-03T09:48:56;100258.50;;;6.29;62.31
28588;BME280;15787;49.662;10.162;2023-04-03T09:51:39;100256.16;;;6.87;61.22
28588;BME280;15787;49.662;10.162;2023-04-03T09:54:34;100248.41;;;7.36;61.36
28588;BME280;15787;49.662;10.162;2023-04-03T09:57:11;100260.28;;;7.00;60.87
28588;BME280;15787;49.662;10.162;2023-04-03T09:59:47;100254.59;;;6.89;59.35
28588;BME280;15787;49.662;10.162;2023-04-03T10:02:34;100252.06;;;6.77;59.87
28588;BME280;15787;49.662;10.162;2023-04-03T10:05:28;100254.91;;;6.81;59.36
28588;BME280;15787;49.662;10.162;2023-04-03T10:08:20;100253.19;;;6.73;60.00
28588;BME280;15787;49.662;10.162;2023-04-03T10:11:10;100256.06;;;6.50;60.44
28588;BME280;15787;49.662;10.162;2023-04-03T10:13:51;100253.44;;;6.61;59.34
28588;BME280;15787;49.662;10.162;2023-04-03T10:16:27;100248.91;;;6.79;59.44
28588;BME280;15787;49.662;10.162;2023-04-03T10:19:13;100244.72;;;6.62;59.91
28588;BME280;15787;49.662;10.162;2023-04-03T10:21:55;100244.06;;;6.72;60.16
28588;BME280;15787;49.662;10.162;2023-04-03T10:24:36;100237.78;;;7.09;59.74
28588;BME280;15787;49.662;10.162;2023-04-03T10:27:16;100240.56;;;7.09;58.40
28588;BME280;15787;49.662;10.162;2023-04-03T10:29:55;100227.47;;;7.46;59.10
28588;BME280;15787;49.662;10.162;2023-04-03T10:32:42;100234.81;;;8.12;57.84
28588;BME280;15787;49.662;10.162;2023-04-03T10:35:28;100228.63;;;7.45;57.13
28588;BME280;15787;49.662;10.162;2023-04-03T10:38:15;100235.50;;;7.54;57.74
28588;BME280;15787;49.662;10.162;2023-04-03T10:40:55;100231.34;;;7.34;58.87
28588;BME280;15787;49.662;10.162;2023-04-03T10:43:35;100233.75;;;8.27;57.97
28588;BME280;15787;49.662;10.162;2023-04-03T10:46:13;100230.22;;;9.13;57.84
28588;BME280;15787;49.662;10.162;2023-04-03T10:49:08;100221.63;;;8.60;53.86
28588;BME280;15787;49.662;10.162;2023-04-03T10:51:48;100227.47;;;9.23;53.99
28588;BME280;15787;49.662;10.162;2023-04-03T10:54:25;100223.22;;;9.96;54.44
28588;BME280;15787;49.662;10.162;2023-04-03T10:57:02;100221.22;;;10.14;55.10
28588;BME280;15787;49.662;10.162;2023-04-03T10:59:45;100225.59;;;10.33;53.56
28588;BME280;15787;49.662;10.162;2023-04-03T11:02:24;100218.44;;;10.36;52.37
28588;BME280;15787;49.662;10.162;2023-04-03T11:05:02;100227.25;;;8.67;51.19
28588;BME280;15787;49.662;10.162;2023-04-03T11:07:43;100221.56;;;9.49;52.73
28588;BME280;15787;49.662;10.162;2023-04-03T11:10:26;100218.56;;;8.79;51.82
28588;BME280;15787;49.662;10.162;2023-04-03T11:13:10;100215.44;;;11.03;53.67
28588;BME280;15787;49.662;10.162;2023-04-03T11:15:44;100217.63;;;10.35;51.99
28588;BME280;15787;49.662;10.162;2023-04-03T11:18:23;100212.06;;;10.28;52.13
28588;BME280;15787;49.662;10.162;2023-04-03T11:20:59;100215.25;;;10.34;51.12
28588;BME280;15787;49.662;10.162;2023-04-03T11:23:35;100202.88;;;10.17;50.15
28588;BME280;15787;49.662;10.162;2023-04-03T11:26:22;100210.78;;;10.64;53.92
28588;BME280;15787;49.662;10.162;2023-04-03T11:28:59;100210.03;;;10.50;50.78
28588;BME280;15787;49.662;10.162;2023-04-03T11:31:44;100207.63;;;9.42;51.46
28588;BME280;15787;49.662;10.162;2023-04-03T11:34:30;100216.03;;;10.20;53.09
28588;BME280;15787;49.662;10.162;2023-04-03T11:37:13;100202.31;;;10.86;51.96
28588;BME280;15787;49.662;10.162;2023-04-03T11:39:53;100187.03;;;11.15;52.12
28588;BME280;15787;49.662;10.162;2023-04-03T11:42:34;100187.81;;;11.77;50.65
28588;BME280;15787;49.662;10.162;2023-04-03T11:45:21;100200.09;;;10.17;48.26
28588;BME280;15787;49.662;10.162;2023-04-03T11:47:58;100192.91;;;9.63;48.64
28588;BME280;15787;49.662;10.162;2023-04-03T11:50:43;100199.31;;;10.17;48.09
28588;BME280;15787;49.662;10.162;2023-04-03T11:53:31;100190.13;;;9.70;48.26
28588;BME280;15787;49.662;10.162;2023-04-03T11:56:29;100186.94;;;10.25;49.88
28588;BME280;15787;49.662;10.162;2023-04-03T11:59:22;100194.91;;;10.33;50.56
28588;BME280;15787;49.662;10.162;2023-04-03T12:01:55;100185.88;;;11.05;49.58
28588;BME280;15787;49.662;10.162;2023-04-03T12:04:29;100186.91;;;10.35;48.33
28588;BME280;15787;49.662;10.162;2023-04-03T12:07:21;100184.13;;;10.42;51.13
28588;BME280;15787;49.662;10.162;2023-04-03T12:09:58;100177.72;;;11.32;51.06
28588;BME280;15787;49.662;10.162;2023-04-03T12:12:41;100168.13;;;10.43;49.07
28588;BME280;15787;49.662;10.162;2023-04-03T12:15:44;100160.66;;;11.78;50.05
28588;BME280;15787;49.662;10.162;2023-04-03T12:18:40;100178.75;;;10.90;48.61
28588;BME280;15787;49.662;10.162;2023-04-03T12:21:14;100176.53;;;10.46;48.80
28588;BME280;15787;49.662;10.162;2023-04-03T12:23:59;100168.00;;;10.82;47.92
28588;BME280;15787;49.662;10.162;2023-04-03T12:26:38;100176.97;;;9.85;48.14
28588;BME280;15787;49.662;10.162;2023-04-03T12:29:22;100173.00;;;10.03;48.72
28588;BME280;15787;49.662;10.162;2023-04-03T12:32:06;100171.38;;;10.06;50.00
28588;BME280;15787;49.662;10.162;2023-04-03T12:34:55;100156.88;;;10.71;50.16
28588;BME280;15787;49.662;10.162;2023-04-03T12:37:50;100163.00;;;10.06;47.76
28588;BME280;15787;49.662;10.162;2023-04-03T12:40:31;100157.84;;;9.97;48.56
28588;BME280;15787;49.662;10.162;2023-04-03T12:43:20;100159.06;;;10.14;49.64
28588;BME280;15787;49.662;10.162;2023-04-03T12:45:59;100143.75;;;10.61;48.57
28588;BME280;15787;49.662;10.162;2023-04-03T12:48:46;100143.19;;;10.94;48.39
28588;BME280;15787;49.662;10.162;2023-04-03T12:51:22;100152.59;;;10.42;48.43
28588;BME280;15787;49.662;10.162;2023-04-03T12:54:02;100146.28;;;9.92;49.39
28588;BME280;15787;49.662;10.162;2023-04-03T12:56:36;100142.94;;;10.60;49.20
28588;BME280;15787;49.662;10.162;2023-04-03T12:59:14;100136.47;;;11.47;49.91
28588;BME280;15787;49.662;10.162;2023-04-03T13:01:55;100140.44;;;10.91;48.79
28588;BME280;15787;49.662;10.162;2023-04-03T13:04:31;100145.50;;;10.16;47.68
28588;BME280;15787;49.662;10.162;2023-04-03T13:07:04;100132.97;;;10.70;45.68
28588;BME280;15787;49.662;10.162;2023-04-03T13:09:37;100134.22;;;10.55;45.38
28588;BME280;15787;49.662;10.162;2023-04-03T13:12:11;100138.59;;;10.56;47.37
28588;BME280;15787;49.662;10.162;2023-04-03T13:14:52;100129.75;;;10.68;45.84
28588;BME280;15787;49.662;10.162;2023-04-03T13:17:26;100132.47;;;10.86;47.19
28588;BME280;15787;49.662;10.162;2023-04-03T13:20:12;100129.66;;;10.89;48.17
28588;BME280;15787;49.662;10.162;2023-04-03T13:22:49;100129.72;;;10.78;46.66
28588;BME280;15787;49.662;10.162;2023-04-03T13:25:30;100129.03;;;10.53;46.95
28588;BME280;15787;49.662;10.162;2023-04-03T13:28:15;100126.63;;;10.52;47.11
28588;BME280;15787;49.662;10.162;2023-04-03T13:31:06;100114.03;;;11.02;47.73
28588;BME280;15787;49.662;10.162;2023-04-03T13:33:51;100114.28;;;11.22;47.26
28588;BME280;15787;49.662;10.162;2023-04-03T13:36:29;100123.53;;;11.15;45.61
28588;BME280;15787;49.662;10.162;2023-04-03T13:39:06;100113.59;;;11.04;46.63
28588;BME280;15787;49.662;10.162;2023-04-03T13:41:42;100114.53;;;11.45;46.35